Latest Weather Observations for Mt Seldom Seen

IDV60801

Issued at 4:03 am EDT Monday 27 March 2017 (issued every 30 minutes, with the page automatically refreshed every 10 minutes)

About weather observations | Map of weather stations | Latest weather observations for VIC | Other Formats
Station Details ID: 250030 Name: VICTORIAN PORTABLE J Lat: -37.10 Lon: 148.19 Height: 1344.0 m
Data from the previous 72 hours. | See also: Recent months for locations in Victoria
Date/Time
EDT
Temp
°C
App
Temp
°C
Dew
Point
°C
Rel
Hum
%
Delta-T
°C
Wind Press
QNH
hPa
Press
MSL
hPa
Rain since
9am
mm
Dir  Spd
km/h
Gust
km/h
Spd
kts
Gust
kts
27/03:50am 16.5 10.3 9.9 65 3.7 WNW 33 57 18 31 - - 0.0
27/03:40am 16.3 10.2 9.9 66 3.6 NW 32 43 17 23 - - 0.0
27/03:30am 16.3 10.1 9.9 66 3.6 WNW 33 54 18 29 - - 0.0
27/03:20am 16.4 10.1 9.8 65 3.7 NW 33 44 18 24 - - 0.0
27/03:10am 16.3 11.0 9.7 65 3.7 NW 28 41 15 22 - - 0.0
27/03:00am 16.5 11.1 9.6 63 3.9 WNW 28 37 15 20 - - 0.0
27/02:50am 16.7 10.6 9.6 63 4.0 WNW 32 44 17 24 - - 0.0
27/02:40am 16.6 10.8 9.5 63 4.0 NW 30 46 16 25 - - 0.0
27/02:30am 16.6 11.9 9.4 62 4.0 NW 24 33 13 18 - - 0.0
27/02:20am 16.2 12.9 9.6 65 3.7 NNW 17 24 9 13 - - 0.0
27/02:10am 16.2 14.1 9.6 65 3.7 N 11 17 6 9 - - 0.0
27/02:00am 16.3 14.2 9.7 65 3.7 N 11 19 6 10 - - 0.0
27/01:50am 16.5 14.0 9.6 63 3.9 N 13 22 7 12 - - 0.0
27/01:40am 16.6 13.7 9.7 63 3.9 NNW 15 22 8 12 - - 0.0
27/01:30am 16.5 13.3 9.8 64 3.8 NNW 17 28 9 15 - - 0.0
27/01:20am 16.6 13.4 9.8 64 3.8 NW 17 28 9 15 - - 0.0
27/01:10am 16.3 13.8 9.8 65 3.6 NNW 13 20 7 11 - - 0.0
27/01:00am 16.7 15.3 9.7 63 3.9 N 7 17 4 9 - - 0.0
27/12:50am 16.9 14.8 9.7 62 4.0 NNW 11 19 6 10 - - 0.0
27/12:40am 16.7 15.0 9.7 63 3.9 N 9 19 5 10 - - 0.0
27/12:30am 16.6 13.4 9.9 64 3.8 NW 17 22 9 12 - - 0.0
27/12:20am 16.5 13.0 10.1 66 3.6 NW 19 26 10 14 - - 0.0
27/12:10am 16.5 13.3 10.1 66 3.6 NW 17 22 9 12 - - 0.0
27/12:00am 16.4 13.7 10.2 66 3.5 NW 15 20 8 11 - - 0.0
 
Date/Time
EDT
Temp
°C
App
Temp
°C
Dew
Point
°C
Rel
Hum
%
Delta-T
°C
Wind Press
QNH
hPa
Press
MSL
hPa
Rain since
9am
mm
Dir  Spd
km/h
Gust
km/h
Spd
kts
Gust
kts
26/11:50pm 16.3 13.9 10.1 66 3.5 NNW 13 19 7 10 - - 0.0
26/11:40pm 16.4 13.3 10.2 66 3.5 NW 17 22 9 12 - - 0.0
26/11:30pm 16.4 13.7 10.4 67 3.4 NNW 15 26 8 14 - - 0.0
26/11:20pm 16.6 13.2 10.7 68 3.4 NNW 19 30 10 16 - - 0.0
26/11:10pm 16.0 14.2 10.9 72 2.9 N 11 17 6 9 - - 0.0
26/11:00pm 15.6 14.3 11.1 74 2.6 N 9 15 5 8 - - 0.0
26/10:50pm 15.8 13.7 11.2 74 2.6 NNW 13 22 7 12 - - 0.0
26/10:40pm 15.9 12.7 11.4 74 2.6 WNW 19 26 10 14 - - 0.0
26/10:30pm 16.1 12.4 11.4 73 2.7 WNW 22 30 12 16 - - 0.0
26/10:20pm 16.3 12.5 11.3 72 2.9 WNW 22 30 12 16 - - 0.0
26/10:10pm 16.3 12.9 11.2 72 2.9 WNW 20 26 11 14 - - 0.0
26/10:00pm 16.5 12.7 11.3 71 3.0 WNW 22 33 12 18 - - 0.0
26/09:50pm 16.4 12.6 11.1 71 3.0 WNW 22 30 12 16 - - 0.0
26/09:40pm 16.5 12.7 11.0 70 3.2 W 22 28 12 15 - - 0.0
26/09:30pm 16.6 12.3 10.8 68 3.3 WNW 24 30 13 16 - - 0.0
26/09:20pm 16.6 12.7 10.7 68 3.4 W 22 30 12 16 - - 0.0
26/09:10pm 16.7 13.1 10.5 67 3.5 W 20 26 11 14 - - 0.0
26/09:00pm 16.8 13.1 10.3 65 3.7 W 20 28 11 15 - - 0.0
26/08:50pm 17.0 13.0 10.3 64 3.8 W 22 28 12 15 - - 0.0
26/08:40pm 17.1 13.6 10.1 63 4.0 WNW 19 26 10 14 - - 0.0
26/08:30pm 16.9 13.7 10.1 64 3.8 WNW 17 22 9 12 - - 0.0
26/08:20pm 17.2 13.7 10.1 63 4.0 WNW 19 24 10 13 - - 0.0
26/08:10pm 17.3 14.1 10.0 62 4.1 WNW 17 24 9 13 - - 0.0
26/08:00pm 17.3 13.7 9.9 62 4.2 W 19 26 10 14 - - 0.0
26/07:50pm 17.4 14.1 9.7 60 4.3 W 17 24 9 13 - - 0.0
26/07:40pm 17.3 14.5 10.0 62 4.1 W 15 20 8 11 - - 0.0
26/07:30pm 17.6 14.3 9.5 59 4.5 WNW 17 22 9 12 - - 0.0
26/07:20pm 17.8 14.9 9.7 59 4.6 WNW 15 22 8 12 - - 0.0
26/07:10pm 18.0 15.5 9.7 58 4.7 NW 13 22 7 12 - - 0.0
26/07:00pm 18.1 17.0 9.8 58 4.7 N 6 9 3 5 - - 0.0
26/06:50pm 18.0 17.1 10.5 61 4.3 NE 6 9 3 5 - - 0.0
26/06:40pm 18.1 17.2 10.5 61 4.4 N 6 9 3 5 - - 0.0
26/06:30pm 18.9 17.7 9.7 55 5.2 NNW 6 11 3 6 - - 0.0
26/06:20pm 19.4 19.1 11.5 60 4.6 NNW 4 9 2 5 - - 0.0
26/06:10pm 19.7 19.3 11.0 57 5.1 NNW 4 6 2 3 - - 0.0
26/06:00pm 19.7 19.2 10.9 57 5.1 N 4 11 2 6 - - 0.0
26/05:50pm 18.6 17.2 10.8 60 4.5 NE 9 13 5 7 - - 0.0
26/05:40pm 17.9 16.1 10.7 62 4.1 NE 11 15 6 8 - - 0.0
26/05:30pm 18.0 17.0 10.9 63 4.1 NE 7 11 4 6 - - 0.0
26/05:20pm 18.3 17.5 11.1 63 4.2 N 6 9 3 5 - - 0.0
26/05:10pm 18.7 18.1 11.6 63 4.2 NNE 6 9 3 5 - - 0.0
26/05:00pm 19.0 18.6 11.2 60 4.5 NNE 4 9 2 5 - - 0.0
26/04:50pm 19.4 18.7 11.5 60 4.6 ENE 6 11 3 6 - - 0.0
26/04:40pm 18.9 18.0 11.5 62 4.3 ENE 7 11 4 6 - - 0.0
26/04:30pm 18.7 17.9 11.8 64 4.1 E 7 13 4 7 - - 0.0
26/04:20pm 19.1 18.3 11.8 62 4.3 E 7 9 4 5 - - 0.0
26/04:10pm 18.4 17.6 11.8 65 3.9 E 7 11 4 6 - - 0.0
26/04:00pm 18.0 17.0 12.3 69 3.4 E 9 11 5 6 - - 0.0
26/03:50pm 17.7 16.5 11.7 68 3.5 E 9 13 5 7 - - 0.0
26/03:40pm 18.2 16.7 11.8 66 3.8 E 11 17 6 9 - - 0.0
26/03:30pm 19.1 17.5 11.7 62 4.4 E 11 15 6 8 - - 0.0
26/03:20pm 18.6 16.9 12.3 67 3.7 E 13 19 7 10 - - 0.0
26/03:10pm 18.5 17.2 12.5 68 3.6 E 11 17 6 9 - - 0.0
26/03:00pm 17.7 16.8 12.5 71 3.1 E 9 13 5 7 - - 0.0
26/02:50pm 17.8 16.6 11.6 67 3.6 E 9 13 5 7 - - 0.0
26/02:40pm 18.6 18.2 12.3 67 3.7 ESE 6 11 3 6 - - 0.0
26/02:30pm 19.6 19.6 12.4 63 4.3 NNE 4 9 2 5 - - 0.0
26/02:20pm 21.4 21.3 12.2 55 5.5 ENE 4 7 2 4 - - 0.0
26/02:10pm 21.1 20.6 12.7 58 5.1 WSW 7 13 4 7 - - 0.0
26/02:00pm 19.1 18.8 11.5 61 4.5 NE 4 6 2 3 - - 0.0
26/01:50pm 18.1 18.0 12.2 68 3.5 SE 4 9 2 5 - - 0.0
26/01:40pm 18.1 18.2 12.6 70 3.3 SE 4 9 2 5 - - 0.0
26/01:30pm 19.2 19.5 12.3 64 4.1 S 2 7 1 4 - - 0.0
26/01:20pm 18.6 19.0 12.5 67 3.6 ESE 2 4 1 2 - - 0.0
26/01:10pm 17.3 17.2 12.0 71 3.1 E 4 7 2 4 - - 0.0
26/01:00pm 17.1 16.3 11.8 71 3.1 E 7 11 4 6 - - 0.0
26/12:50pm 17.4 17.3 12.1 71 3.1 E 4 7 2 4 - - 0.0
26/12:40pm 17.4 17.2 11.7 69 3.3 NE 4 7 2 4 - - 0.0
26/12:30pm 16.9 16.2 12.0 73 2.9 E 7 11 4 6 - - 0.0
26/12:20pm 17.2 16.7 12.0 71 3.0 SE 6 9 3 5 - - 0.0
26/12:10pm 16.9 16.8 12.0 73 2.9 SE 4 7 2 4 - - 0.0
26/12:00pm 17.8 17.7 12.1 69 3.4 SSE 4 7 2 4 - - 0.0
26/11:50am 17.8 18.1 12.3 70 3.2 SSW 2 7 1 4 - - 0.0
26/11:40am 18.0 17.6 11.2 64 3.9 WSW 4 6 2 3 - - 0.0
26/11:30am 19.8 19.6 11.9 60 4.7 SW 4 7 2 4 - - 0.0
26/11:20am 19.7 19.8 11.5 59 4.8 S 2 6 1 3 - - 0.0
26/11:10am 19.0 18.2 9.8 55 5.2 W 4 7 2 4 - - 0.0
26/11:00am 18.9 18.3 10.5 58 4.8 W 4 7 2 4 - - 0.0
26/10:50am 19.3 19.0 11.3 60 4.7 SSE 4 9 2 5 - - 0.0
26/10:40am 19.2 18.9 10.0 55 5.3 SW 2 6 1 3 - - 0.0
26/10:30am 18.2 17.5 9.9 58 4.7 W 4 6 2 3 - - 0.0
26/10:20am 17.4 16.7 10.0 62 4.2 WNW 4 6 2 3 - - 0.0
26/10:10am 17.1 16.1 10.4 64 3.8 W 6 6 3 3 - - 0.0
26/10:00am 17.1 16.4 10.2 64 3.9 W 4 6 2 3 - - 0.0
26/09:50am 17.2 16.8 9.6 61 4.3 W 2 6 1 3 - - 0.0
26/09:40am 16.8 16.4 9.9 64 3.9 W 2 4 1 2 - - 0.0
26/09:30am 17.3 16.9 9.9 62 4.2 W 2 6 1 3 - - 0.0
26/09:20am 17.7 17.3 9.7 59 4.5 WSW 2 2 1 1 - - 0.0
26/09:10am 17.2 16.8 9.9 62 4.1 SW 2 4 1 2 - - 0.0
26/09:00am 17.2 16.8 9.7 61 4.2 SW 2 4 1 2 - - 2.0
26/08:50am 16.4 15.6 9.6 64 3.8 SW 4 7 2 4 - - 2.0
26/08:40am 15.5 14.1 9.4 67 3.4 SW 7 9 4 5 - - 2.0
26/08:30am 15.4 13.9 9.3 67 3.4 SW 7 9 4 5 - - 2.0
26/08:20am 15.0 13.5 9.2 68 3.2 SW 7 11 4 6 - - 2.0
 
Date/Time
EDT
Temp
°C
App
Temp
°C
Dew
Point
°C
Rel
Hum
%
Delta-T
°C
Wind Press
QNH
hPa
Press
MSL
hPa
Rain since
9am
mm
Dir  Spd
km/h
Gust
km/h
Spd
kts
Gust
kts
25/11:40pm 14.3 12.6 9.7 74 2.5 N 9 11 5 6 - - 2.0
25/11:30pm 14.1 12.6 10.4 78 2.1 N 9 13 5 7 - - 2.0
25/11:20pm 14.1 12.6 10.5 79 2.0 NNE 9 11 5 6 - - 2.0
25/11:10pm 14.1 13.0 10.6 79 2.0 N 7 9 4 5 - - 2.0
25/11:00pm 14.1 13.0 10.7 80 1.9 N 7 9 4 5 - - 2.0
25/10:50pm 14.0 13.1 10.8 81 1.8 NNW 6 7 3 4 - - 2.0
25/10:30pm 13.9 12.8 10.6 80 1.9 NNW 7 9 4 5 - - 2.0
25/10:20pm 14.3 13.7 10.5 78 2.1 NW 4 7 2 4 - - 2.0
25/10:10pm 14.4 14.1 8.6 68 3.1 CALM 0 2 0 1 - - 2.0
25/10:00pm 14.4 14.1 8.5 67 3.2 CALM 0 0 0 0 - - 2.0
25/09:50pm 14.5 13.8 8.6 67 3.2 SW 2 4 1 2 - - 2.0
25/09:40pm 14.5 13.8 8.6 67 3.2 SW 2 4 1 2 - - 2.0
25/09:30pm 14.3 13.3 8.8 69 3.0 SSW 4 6 2 3 - - 2.0
25/09:20pm 14.1 13.8 8.8 70 2.9 CALM 0 0 0 0 - - 2.0
25/09:10pm 14.3 13.7 8.8 69 3.0 WSW 2 4 1 2 - - 2.0
25/09:00pm 14.5 13.5 8.9 69 3.1 W 4 6 2 3 - - 2.0
25/08:50pm 14.2 13.6 8.8 70 2.9 WNW 2 6 1 3 - - 2.0
25/08:40pm 13.8 12.8 10.3 79 2.0 W 6 7 3 4 - - 2.0
25/08:30pm 14.2 13.0 9.5 73 2.6 W 6 7 3 4 - - 2.0
25/08:20pm 13.9 13.2 9.9 77 2.2 W 4 6 2 3 - - 2.0
25/08:10pm 14.1 13.2 9.1 72 2.7 W 4 6 2 3 - - 2.0
25/08:00pm 14.0 12.7 9.2 73 2.6 W 6 6 3 3 - - 2.0
25/07:50pm 13.9 13.0 9.1 73 2.6 W 4 7 2 4 - - 2.0
25/07:40pm 13.8 12.5 9.3 74 2.5 WSW 6 7 3 4 - - 2.0
25/07:30pm 13.7 12.3 9.0 73 2.6 S 6 7 3 4 - - 2.0
25/07:20pm 13.7 12.6 9.9 78 2.1 S 6 7 3 4 - - 2.0
25/07:10pm 13.5 12.3 10.3 81 1.8 SSE 7 11 4 6 - - 2.0
25/07:00pm 13.9 12.3 10.3 79 2.0 S 9 17 5 9 - - 2.0
25/06:50pm 14.2 13.4 11.6 84 1.5 ESE 7 11 4 6 - - 2.0
25/06:40pm 14.4 13.0 10.9 79 2.0 SE 9 15 5 8 - - 2.0
25/06:30pm 14.8 13.9 10.6 76 2.4 SSE 6 11 3 6 - - 2.0
25/06:20pm 15.1 14.6 10.7 75 2.5 S 4 7 2 4 - - 2.0
25/06:10pm 15.6 15.3 11.6 77 2.3 WSW 4 7 2 4 - - 2.0
25/06:00pm 15.9 15.6 11.3 74 2.6 WSW 4 11 2 6 - - 2.0
25/05:50pm 15.9 14.7 11.6 75 2.5 W 9 15 5 8 - - 2.0
25/05:40pm 16.8 15.7 11.9 73 2.9 W 9 17 5 9 - - 2.0
25/05:30pm 16.9 15.3 11.4 70 3.2 W 11 19 6 10 - - 2.0
25/05:20pm 17.3 16.5 11.8 70 3.2 WSW 7 15 4 8 - - 2.0
25/05:10pm 17.5 16.7 11.7 69 3.4 W 7 20 4 11 - - 2.0
25/05:00pm 17.3 15.9 12.3 72 2.9 W 11 19 6 10 - - 2.0
25/04:50pm 16.7 15.0 12.4 76 2.5 W 13 20 7 11 - - 2.0
25/04:40pm 16.2 14.4 12.0 76 2.4 W 13 22 7 12 - - 2.0
25/04:30pm 16.2 14.8 12.1 76 2.4 W 11 20 6 11 - - 2.0
25/04:20pm 16.1 15.2 12.6 80 2.1 W 9 17 5 9 - - 2.0
25/04:10pm 15.9 14.5 12.1 78 2.2 W 11 17 6 9 - - 2.0
25/04:00pm 15.9 14.5 12.3 79 2.1 WNW 11 17 6 9 - - 2.0
25/03:50pm 15.7 13.8 11.9 78 2.2 W 13 20 7 11 - - 2.0
25/03:40pm 14.7 11.7 10.8 77 2.2 W 17 22 9 12 - - 2.0
25/03:30pm 13.7 10.2 10.1 79 2.0 W 19 28 10 15 - - 2.0
25/03:20pm 13.3 10.1 9.9 80 1.9 W 17 26 9 14 - - 2.0
25/03:10pm 12.6 9.9 10.5 87 1.2 WNW 15 22 8 12 - - 2.0
25/03:00pm 12.5 8.9 10.0 85 1.4 WNW 19 28 10 15 - - 2.0
25/02:50pm 12.5 8.3 9.8 83 1.5 W 22 33 12 18 - - 2.0
25/02:40pm 12.3 7.8 10.0 86 1.3 W 24 37 13 20 - - 2.0
25/02:30pm 12.3 8.8 10.3 87 1.1 W 19 33 10 18 - - 2.0
25/02:20pm 12.1 8.8 11.0 93 0.6 W 19 33 10 18 - - 2.0
25/02:10pm 12.1 9.6 11.2 94 0.5 WSW 15 28 8 15 - - 2.0
25/02:00pm 12.4 9.6 11.5 94 0.5 WSW 17 28 9 15 - - 2.0
25/01:50pm 12.5 9.4 11.6 94 0.5 W 19 33 10 18 - - 2.0
25/01:40pm 12.3 9.5 11.3 94 0.6 WSW 17 32 9 17 - - 1.6
25/01:30pm 12.6 10.6 11.6 94 0.6 W 13 22 7 12 - - 1.2
25/01:20pm 12.6 11.0 11.5 93 0.6 WSW 11 19 6 10 - - 1.0
25/01:10pm 12.9 11.7 11.6 92 0.7 W 9 20 5 11 - - 1.0
25/01:00pm 13.5 11.7 12.0 91 0.9 W 13 22 7 12 - - 0.4
25/12:50pm 14.2 12.6 11.6 84 1.5 W 11 17 6 9 - - 0.0
25/12:40pm 14.2 12.2 11.4 83 1.6 W 13 20 7 11 - - 0.0
25/12:30pm 14.1 11.6 11.1 82 1.7 W 15 26 8 14 - - 0.0
25/12:20pm 14.2 11.3 11.1 81 1.8 W 17 24 9 13 - - 0.0
25/12:10pm 14.3 11.9 11.3 82 1.7 W 15 26 8 14 - - 0.0
25/12:00pm 14.7 12.4 11.6 82 1.8 W 15 22 8 12 - - 0.0
25/11:50am 14.5 12.1 11.4 82 1.8 W 15 22 8 12 - - 0.0
25/11:40am 14.5 12.1 11.4 82 1.8 W 15 28 8 15 - - 0.0
25/11:30am 14.8 12.4 11.3 79 2.0 W 15 26 8 14 - - 0.0
25/11:20am 14.7 11.9 11.2 79 2.0 W 17 30 9 16 - - 0.0
25/11:10am 14.6 11.3 11.0 79 2.0 W 19 28 10 15 - - 0.0
25/11:00am 14.7 11.4 11.0 78 2.1 W 19 32 10 17 - - 0.0
25/10:50am 14.4 10.9 10.9 79 2.0 WNW 20 33 11 18 - - 0.0
25/10:40am 14.2 10.3 10.8 80 1.9 W 22 33 12 18 - - 0.0
25/10:30am 14.4 10.1 10.8 79 2.0 W 24 37 13 20 - - 0.0
25/10:20am 14.3 9.6 10.7 79 2.0 W 26 43 14 23 - - 0.0
25/10:10am 14.3 9.6 10.7 79 2.0 W 26 46 14 25 - - 0.0
25/10:00am 14.2 8.7 10.6 79 2.0 W 30 43 16 23 - - 0.0
25/09:50am 14.1 8.6 10.4 78 2.1 W 30 48 16 26 - - 0.0
25/09:40am 14.0 8.5 10.4 79 2.0 W 30 44 16 24 - - 0.0
25/09:30am 13.9 7.9 10.1 78 2.1 WNW 32 46 17 25 - - 0.0
25/09:20am 13.9 7.9 10.0 77 2.2 WNW 32 41 17 22 - - 0.0
25/09:10am 13.7 8.0 9.9 78 2.1 WNW 30 41 16 22 - - 0.0
25/09:00am 13.8 7.7 9.6 76 2.3 WNW 32 44 17 24 - - 0.0
25/08:50am 13.7 7.9 9.5 76 2.3 WNW 30 43 16 23 - - 0.0
25/08:40am 13.6 8.2 9.4 76 2.3 WNW 28 37 15 20 - - 0.0
25/08:30am 13.3 7.1 9.3 77 2.2 WNW 32 43 17 23 - - 0.0
25/08:20am 12.8 6.9 9.2 79 2.0 WNW 30 46 16 25 - - 0.0
25/08:10am 12.8 6.5 9.1 78 2.0 NW 32 44 17 24 - - 0.0
25/08:00am 12.6 6.3 8.9 78 2.0 NW 32 41 17 22 - - 0.0
25/07:50am 12.5 6.2 8.8 78 2.0 WNW 32 44 17 24 - - 0.0
25/07:40am 12.8 6.5 9.0 78 2.1 WNW 32 43 17 23 - - 0.0
25/07:30am 12.8 6.3 8.9 77 2.1 WNW 33 44 18 24 - - 0.0
25/07:20am 12.8 6.2 8.7 76 2.2 WNW 33 44 18 24 - - 0.0
25/07:10am 12.9 5.9 8.6 75 2.3 WNW 35 48 19 26 - - 0.0
25/07:00am 13.0 6.4 8.5 74 2.4 WNW 33 52 18 28 - - 0.0
25/06:50am 13.0 6.5 8.2 72 2.6 WNW 32 44 17 24 - - 0.0
25/06:40am 13.0 6.8 8.0 71 2.7 WNW 30 39 16 21 - - 0.0
25/06:30am 13.0 7.2 8.0 71 2.7 W 28 39 15 21 - - 0.0
25/06:20am 12.9 7.5 8.2 73 2.5 W 26 37 14 20 - - 0.0
25/06:10am 12.8 7.5 8.4 74 2.4 WNW 26 35 14 19 - - 0.0
25/06:00am 12.9 8.5 8.8 76 2.2 WNW 22 32 12 17 - - 0.0
25/05:50am 12.8 9.0 8.9 77 2.1 WNW 19 26 10 14 - - 0.0
25/05:40am 13.0 9.0 9.1 77 2.1 WNW 20 28 11 15 - - 0.0
25/05:30am 13.0 9.0 9.2 78 2.1 W 20 30 11 16 - - 0.0
25/05:20am 13.0 9.0 9.2 78 2.1 W 20 30 11 16 - - 0.0
25/05:10am 12.9 8.2 9.2 78 2.0 W 24 32 13 17 - - 0.0
25/05:00am 12.9 8.6 9.2 78 2.0 W 22 30 12 16 - - 0.0
25/04:50am 12.7 8.0 9.3 80 1.9 W 24 32 13 17 - - 0.0
25/04:40am 12.6 8.3 9.2 80 1.8 W 22 32 12 17 - - 0.0
25/04:30am 12.5 8.2 9.3 81 1.7 WNW 22 37 12 20 - - 0.0
25/04:20am 12.5 8.2 9.3 81 1.7 W 22 33 12 18 - - 0.0
25/04:10am 12.3 7.2 9.3 82 1.6 W 26 35 14 19 - - 0.0
25/04:00am 12.3 7.3 9.4 82 1.6 W 26 35 14 19 - - 0.0
25/03:50am 12.3 6.9 9.4 82 1.6 W 28 41 15 22 - - 0.0
25/03:40am 12.4 6.6 9.4 82 1.6 W 30 44 16 24 - - 0.0
25/03:30am 12.3 7.3 9.4 82 1.6 WNW 26 37 14 20 - - 0.0
25/03:20am 12.3 7.3 9.5 83 1.5 WNW 26 39 14 21 - - 0.0
25/03:10am 12.2 6.4 9.4 83 1.5 WNW 30 41 16 22 - - 0.0
25/03:00am 12.0 6.6 9.4 84 1.4 NW 28 37 15 20 - - 0.0
25/02:50am 11.9 7.2 9.3 84 1.4 NW 24 33 13 18 - - 0.0
25/02:40am 12.1 7.4 9.3 83 1.5 NW 24 35 13 19 - - 0.0
25/02:30am 12.1 8.2 9.3 83 1.5 NW 20 30 11 16 - - 0.0
25/02:20am 12.2 8.2 9.2 82 1.6 NW 20 30 11 16 - - 0.0
25/02:10am 12.3 8.5 9.2 81 1.7 NW 19 28 10 15 - - 0.0
25/02:00am 12.2 9.2 9.1 81 1.7 NNW 15 22 8 12 - - 0.0
25/01:50am 12.4 9.0 9.1 80 1.8 NW 17 24 9 13 - - 0.0
25/01:40am 12.4 8.6 9.0 80 1.8 NW 19 28 10 15 - - 0.0
25/01:30am 12.3 8.8 8.9 80 1.8 NW 17 22 9 12 - - 0.0
25/01:20am 12.5 9.0 8.8 78 2.0 NW 17 26 9 14 - - 0.0
25/01:10am 12.0 9.2 8.7 80 1.8 NNW 13 20 7 11 - - 0.0
25/01:00am 11.8 9.0 8.7 81 1.7 NNW 13 19 7 10 - - 0.0
25/12:50am 11.4 9.0 8.7 83 1.4 N 11 19 6 10 - - 0.0
25/12:40am 11.1 8.3 8.7 85 1.3 N 13 19 7 10 - - 0.0
25/12:30am 10.8 8.4 8.7 87 1.1 NNE 11 20 6 11 - - 0.0
25/12:20am 10.6 7.8 8.7 88 1.0 NNE 13 19 7 10 - - 0.0
25/12:10am 10.8 8.0 8.7 87 1.1 NNE 13 19 7 10 - - 0.0
25/12:00am 10.8 7.7 8.8 87 1.1 NNE 15 20 8 11 - - 0.0
 
Date/Time
EDT
Temp
°C
App
Temp
°C
Dew
Point
°C
Rel
Hum
%
Delta-T
°C
Wind Press
QNH
hPa
Press
MSL
hPa
Rain since
9am
mm
Dir  Spd
km/h
Gust
km/h
Spd
kts
Gust
kts
24/11:50pm 10.9 7.4 8.7 86 1.2 NE 17 32 9 17 - - 0.0
24/11:40pm 10.6 7.1 8.7 88 1.0 NE 17 30 9 16 - - 0.0
24/11:30pm 10.7 7.2 8.7 87 1.1 NE 17 24 9 13 - - 0.0
24/11:20pm 10.9 7.7 8.6 86 1.2 NE 15 22 8 12 - - 0.0
24/11:10pm 11.1 7.2 8.6 84 1.3 NNE 19 26 10 14 - - 0.0
24/11:00pm 10.9 6.8 8.6 86 1.2 NE 20 30 11 16 - - 0.0
24/10:50pm 11.1 7.0 8.5 84 1.4 NE 20 30 11 16 - - 0.0
24/10:40pm 11.1 7.2 8.5 84 1.4 NNE 19 33 10 18 - - 0.0
24/10:30pm 11.2 7.0 8.4 83 1.5 NE 20 32 11 17 - - 0.0
24/10:20pm 11.2 6.6 8.3 82 1.5 NE 22 32 12 17 - - 0.0
24/10:10pm 11.4 6.8 8.3 81 1.6 NE 22 33 12 18 - - 0.0
24/10:00pm 11.6 7.0 8.3 80 1.7 NE 22 33 12 18 - - 0.0
24/09:50pm 11.6 6.7 8.3 80 1.7 NE 24 35 13 19 - - 0.0
24/09:40pm 11.7 7.5 8.3 79 1.8 NE 20 37 11 20 - - 0.0
24/09:30pm 11.7 7.1 8.3 79 1.8 NE 22 32 12 17 - - 0.0
24/09:20pm 11.7 7.5 8.4 80 1.8 NNE 20 30 11 16 - - 0.0
24/09:10pm 11.8 7.6 8.4 80 1.8 NNE 20 32 11 17 - - 0.0
24/09:00pm 11.9 7.4 8.4 79 1.9 NNE 22 39 12 21 - - 0.0
24/08:50pm 11.8 6.1 8.4 80 1.8 NE 28 39 15 21 - - 0.0
24/08:40pm 11.8 7.3 8.4 80 1.8 NE 22 35 12 19 - - 0.0
24/08:30pm 12.0 8.0 8.4 78 1.9 NNE 19 32 10 17 - - 0.0
24/08:20pm 11.9 7.8 8.5 80 1.8 NNE 20 41 11 22 - - 0.0
24/08:10pm 11.7 7.2 8.5 81 1.7 NE 22 33 12 18 - - 0.0
24/08:00pm 11.8 6.9 8.5 80 1.8 NE 24 41 13 22 - - 0.0
24/07:50pm 11.7 7.6 8.6 81 1.7 NNE 20 33 11 18 - - 0.0
24/07:40pm 11.8 7.3 8.6 81 1.7 NNE 22 37 12 20 - - 0.0
24/07:30pm 11.5 7.0 8.7 83 1.5 NE 22 35 12 19 - - 0.0
24/07:20pm 11.4 7.0 8.8 84 1.4 NE 22 39 12 21 - - 0.0
24/07:10pm 11.3 6.9 9.0 86 1.2 NE 22 35 12 19 - - 0.0
24/07:00pm 11.3 7.3 9.0 86 1.2 NE 20 30 11 16 - - 0.0
24/06:50pm 11.2 6.8 9.1 87 1.1 ENE 22 33 12 18 - - 0.0
24/06:40pm 11.3 7.0 9.2 87 1.1 ENE 22 32 12 17 - - 0.0
24/06:30pm 11.3 7.0 9.2 87 1.1 ENE 22 32 12 17 - - 0.0
24/06:20pm 11.4 7.5 9.4 87 1.1 ENE 20 32 11 17 - - 0.0
24/06:10pm 11.4 7.5 9.4 87 1.1 ENE 20 32 11 17 - - 0.0
24/06:00pm 11.7 7.8 9.3 85 1.3 ENE 20 32 11 17 - - 0.0
24/05:50pm 11.7 8.4 9.6 87 1.1 ENE 17 26 9 14 - - 0.0
24/05:40pm 11.8 8.2 9.7 87 1.1 ENE 19 30 10 16 - - 0.0
24/05:30pm 12.3 8.8 10.1 86 1.2 ENE 19 30 10 16 - - 0.0
24/05:20pm 12.0 8.4 9.9 87 1.2 ENE 19 32 10 17 - - 0.0
24/05:10pm 11.8 8.3 10.1 89 0.9 ENE 19 32 10 17 - - 0.0
24/05:00pm 11.6 8.4 9.8 89 1.0 ENE 17 26 9 14 - - 0.0
24/04:50pm 12.3 10.4 10.5 89 1.0 ENE 11 22 6 12 - - 0.0
24/04:40pm 12.1 9.4 10.3 89 1.0 NE 15 24 8 13 - - 0.0
24/04:30pm 11.7 9.0 10.2 90 0.8 NE 15 26 8 14 - - 0.0
24/04:20pm 11.7 8.9 10.1 90 0.9 NE 15 28 8 15 - - 0.0
24/04:10pm 12.2 9.2 10.6 90 0.9 NE 17 30 9 16 - - 0.0
24/04:00pm 12.8 10.5 11.6 92 0.7 NE 15 28 8 15 - - 0.0
24/03:50pm 11.8 8.3 10.8 94 0.6 ENE 20 32 11 17 - - 0.0
24/03:40pm 11.9 8.5 11.1 95 0.4 NE 20 32 11 17 - - 0.0
24/03:30pm 11.3 8.7 10.7 96 0.3 ENE 15 30 8 16 - - 0.0
24/03:20pm 11.4 9.2 10.8 96 0.3 NE 13 26 7 14 - - 0.0
24/03:10pm 10.9 7.8 10.3 96 0.3 NE 17 28 9 15 - - 0.0
24/03:00pm 10.8 8.1 10.3 97 0.3 NE 15 26 8 14 - - 0.0
24/02:50pm 10.7 8.3 10.1 96 0.3 NE 13 24 7 13 - - 0.0
24/02:40pm 10.8 8.4 10.2 96 0.3 NE 13 22 7 12 - - 0.0
24/02:30pm 10.6 8.6 10.0 96 0.3 ENE 11 26 6 14 - - 0.0
24/02:20pm 10.9 9.7 10.4 97 0.3 NNE 7 24 4 13 - - 0.0
24/02:10pm 10.9 8.6 10.3 96 0.3 NE 13 32 7 17 - - 0.0
24/02:00pm 11.0 7.9 10.4 96 0.3 NE 17 32 9 17 - - 0.0
24/01:50pm 11.1 8.1 10.5 96 0.3 NE 17 30 9 16 - - 0.0
24/01:40pm 10.5 6.8 10.0 97 0.3 ENE 20 32 11 17 - - 0.0
24/01:30pm 10.9 7.4 10.2 95 0.4 ENE 19 33 10 18 - - 0.0
24/01:20pm 10.9 7.5 10.4 97 0.3 ENE 19 30 10 16 - - 0.0
24/01:10pm 11.1 8.1 10.6 97 0.3 NE 17 28 9 15 - - 0.0
24/01:00pm 10.7 8.4 10.3 97 0.2 NE 13 26 7 14 - - 0.0
24/12:50pm 10.7 7.6 10.3 97 0.2 NE 17 26 9 14 - - 0.0
24/12:40pm 10.5 6.9 10.0 97 0.3 NE 19 35 10 19 - - 0.0
24/12:30pm 10.5 7.7 10.1 97 0.2 NE 15 26 8 14 - - 0.0
24/12:20pm 10.2 7.7 9.8 97 0.2 NE 13 26 7 14 - - 0.0
24/12:10pm 9.7 7.1 9.3 97 0.2 NNE 13 22 7 12 - - 0.0
24/12:00pm 9.9 7.0 9.5 97 0.2 ENE 15 26 8 14 - - 0.0
24/11:50am 10.2 7.3 9.7 97 0.3 ENE 15 28 8 15 - - 0.0
24/11:40am 9.7 6.3 9.3 97 0.2 NE 17 28 9 15 - - 0.0
24/11:30am 9.5 6.4 9.0 97 0.3 NE 15 24 8 13 - - 0.0
24/11:20am 9.7 6.7 9.2 97 0.3 NNE 15 28 8 15 - - 0.0
24/11:10am 9.6 6.9 9.1 97 0.3 NE 13 26 7 14 - - 0.0
24/11:00am 9.5 6.4 9.0 97 0.3 NE 15 26 8 14 - - 0.0
24/10:50am 9.4 5.6 8.9 97 0.3 NE 19 32 10 17 - - 0.0
24/10:40am 9.3 5.5 8.9 97 0.2 ENE 19 33 10 18 - - 0.0
24/10:30am 9.2 5.7 8.6 96 0.3 ENE 17 32 9 17 - - 0.0
24/10:20am 9.1 5.6 8.6 97 0.3 ENE 17 28 9 15 - - 0.0
24/10:00am 9.5 6.4 8.9 96 0.3 ENE 15 28 8 15 - - 0.0
24/09:50am 9.4 6.3 8.8 96 0.3 ENE 15 28 8 15 - - 0.0
24/09:40am 9.0 5.4 8.5 97 0.3 ENE 17 28 9 15 - - 0.0
24/09:30am 9.1 5.9 8.4 95 0.4 ENE 15 24 8 13 - - 0.0
24/09:20am 9.1 5.9 8.5 96 0.3 ENE 15 24 8 13 - - 0.0
24/09:10am 8.8 5.2 8.2 96 0.3 ENE 17 30 9 16 - - 0.0
24/09:00am 8.7 5.1 8.2 97 0.3 ENE 17 30 9 16 - - 10.6
24/08:50am 8.7 5.0 8.1 96 0.3 NE 17 26 9 14 - - 10.6
24/08:40am 8.6 4.9 8.0 96 0.3 NE 17 28 9 15 - - 10.6
24/08:30am 8.8 5.1 8.1 95 0.4 NE 17 26 9 14 - - 10.6
24/08:20am 8.9 5.7 8.3 96 0.3 ENE 15 26 8 14 - - 10.6
24/08:10am 8.9 6.0 8.3 96 0.3 ENE 13 20 7 11 - - 10.6
24/08:00am 8.8 5.5 8.2 96 0.3 ENE 15 20 8 11 - - 10.4
24/07:50am 8.7 5.8 8.1 96 0.3 ENE 13 20 7 11 - - 10.4
24/07:40am 8.6 5.7 8.0 96 0.3 NE 13 24 7 13 - - 10.4
24/07:30am 8.6 6.1 8.0 96 0.3 NE 11 17 6 9 - - 10.4
24/07:20am 8.6 6.1 8.0 96 0.3 ENE 11 19 6 10 - - 10.2
24/07:10am 8.6 6.1 8.0 96 0.3 NE 11 22 6 12 - - 10.2
24/07:00am 8.5 5.5 7.9 96 0.3 ENE 13 24 7 13 - - 10.2
24/06:50am 8.5 4.8 7.9 96 0.3 ENE 17 30 9 16 - - 10.2
24/06:40am 8.5 4.8 7.9 96 0.3 ENE 17 28 9 15 - - 10.2
24/06:30am 8.4 4.1 7.9 97 0.3 ENE 20 30 11 16 - - 10.2
24/06:20am 8.5 4.4 7.9 96 0.3 ENE 19 32 10 17 - - 10.2
24/06:10am 8.5 4.2 7.9 96 0.3 ENE 20 33 11 18 - - 10.2
24/06:00am 8.6 4.5 8.0 96 0.3 ENE 19 32 10 17 - - 10.2
24/05:50am 8.7 5.0 8.1 96 0.3 ENE 17 26 9 14 - - 10.2
24/05:40am 8.7 5.0 8.1 96 0.3 ENE 17 26 9 14 - - 10.2
24/05:30am 8.7 5.0 8.0 95 0.4 ENE 17 26 9 14 - - 10.2
24/05:20am 8.6 5.3 8.0 96 0.3 ENE 15 20 8 11 - - 10.2
24/05:10am 8.6 4.9 8.0 96 0.3 ENE 17 22 9 12 - - 10.2
24/05:00am 8.7 5.4 8.1 96 0.3 ENE 15 20 8 11 - - 10.2
24/04:50am 8.8 6.7 8.2 96 0.3 NE 9 17 5 9 - - 10.2
24/04:40am 8.8 6.3 8.2 96 0.3 ENE 11 17 6 9 - - 10.2
24/04:30am 8.8 7.2 8.2 96 0.3 NE 6 11 3 6 - - 10.0
24/04:20am 8.8 7.1 8.2 96 0.3 ENE 7 15 4 8 - - 10.0
24/04:10am 8.8 6.7 8.2 96 0.3 ENE 9 17 5 9 - - 10.0

Other Formats:

Comma delimited format used in spreadsheet applications
http://www.bom.gov.au/fwo/IDV60801/IDV60801.99052.axf

JavaScript Object Notation format (JSON) in row-major order
http://www.bom.gov.au/fwo/IDV60801/IDV60801.99052.json